エル・アルト国際空港の過去48時間の天気

エル・アルト国際空港 (La Paz / Alto)

現在時刻: 7/4 23:46 -04 (7/5 03:46 UTC) 以下の時間は現地時間です。

過去48時間のMETAR気象情報
時間 風向 風速(m/s) 視程 気温(℃) 湿度(%) 気圧(hPa) 天気現象
4 23:00 3 10km以上 0 64 1040
4 22:00 東北東 4 10km以上 0 59 1040
4 21:00 4 10km以上 2 51 1040
4 20:00 4 10km以上 3 41 1039
4 19:00 2 10km以上 6 28 1039
4 18:00 東南東 3 10km以上 11 19 1038
4 17:00 東南東 4 10km以上 14 13 1038
4 16:00 東南東 5 10km以上 15 11 1038
4 15:00 東南東 4 10km以上 16 11 1039
4 14:00 南東 4 10km以上 15 11 1040
4 13:00 南東 3 10km以上 14 11 1040
4 12:00 不定 1 10km以上 15 11 1041
4 11:00 不定 1 10km以上 13 10 1042
4 10:00 不定 1 10km以上 11 12 1043
4 09:00 不定 1 10km以上 8 18 1042
4 08:00 北北東 2 10km以上 4 24 1042
4 07:00 不定 1 10km以上 -2 39 1041
4 06:00 不定 1 10km以上 -1 40 1040
4 05:00 不定 1 10km以上 1 34 1040
4 04:00 不定 1 10km以上 0 43 1040
4 03:00 不定 1 10km以上 -1 59 1040
4 02:00 不定 1 10km以上 0 55 1040
4 01:00 不定 1 10km以上 1 55 1041
4 00:00 3 10km以上 1 55 1040
3 23:00 3 10km以上 0 59 1040
3 22:00 東南東 2 10km以上 -1 59 1040
3 21:00 2 10km以上 0 51 1040
3 20:00 東北東 3 10km以上 4 41 1039
3 19:00 3 10km以上 5 33 1039
3 18:00 西 5 10km以上 10 14 1038
3 17:00 西 6 10km以上 13 10 1038
3 16:00 西 4 10km以上 15 9 1038
3 15:00 西南西 6 10km以上 16 8 1038
3 14:00 西 4 10km以上 16 8 1039
3 13:00 西北西 3 10km以上 15 7 1040
3 12:00 不定 1 10km以上 13 8 1041
3 11:00 西南西 3 10km以上 11 10 1041
3 10:00 西南西 3 10km以上 9 18 1041
3 09:00 不定 1 10km以上 7 15 1041
3 08:00 北北東 2 10km以上 6 11 1040
3 07:00 2 10km以上 0 29 1039
3 06:00 2 10km以上 1 29 1039
3 05:00 2 10km以上 -1 29 1038
3 04:00 2 10km以上 3 20 1038
3 03:00 静穏 0 10km以上 -4 42 1038
3 02:00 東北東 3 10km以上 -3 39 1038
3 01:00 東北東 3 10km以上 -3 46 1038
3 00:00 不定 1 10km以上 -1 40 1039
SLLP 050300Z 08006KT 9999 NSC 00/M06 Q1040
SLLP 050200Z 07007KT 9999 NSC 00/M07 Q1040
SLLP 050100Z 08007KT 9999 NSC 02/M07 Q1040
SLLP 050000Z 09007KT 9999 NSC 03/M09 Q1039
SLLP 042300Z 08004KT 9999 FEW070 SCT200 06/M11 Q1039
SLLP 042200Z 12006KT 9999 FEW015 SCT200 11/M12 Q1038
SLLP 042100Z 11008KT 9999 FEW020 SCT200 14/M14 Q1038
SLLP 042000Z 12009KT 070V150 9999 FEW020 SCT200 15/M15 Q1038
SLLP 041900Z 12008KT 080V160 9999 FEW020 SCT200 16/M15 Q1039
SLLP 041800Z 13007KT 9999 FEW020 BKN200 15/M15 Q1040
SLLP 041700Z 13005KT 9999 FEW017 BKN200 14/M16 Q1040
SLLP 041600Z VRB02KT 9999 FEW017 BKN200 15/M15 Q1041
SLLP 041500Z VRB02KT 9999 FEW017 BKN200 13/M18 Q1042
SLLP 041400Z VRB02KT 9999 FEW070 BKN200 11/M17 Q1043
SLLP 041300Z VRB02KT 9999 FEW070 BKN200 08/M15 Q1042
SLLP 041200Z 02004KT 9999 FEW070 BKN200 04/M15 Q1042
SLLP 041100Z VRB02KT 9999 SCT070 BKN200 M02/M14 Q1041
SLLP 041000Z VRB02KT 9999 FEW070 BKN200 M01/M13 Q1040
SLLP 040900Z VRB02KT 9999 FEW070 BKN200 01/M13 Q1040
SLLP 040800Z VRB02KT 9999 FEW070 BKN200 00/M11 Q1040
SLLP 040700Z VRB02KT 9999 FEW070 BKN200 M01/M08 Q1040
SLLP 040600Z VRB02KT 9999 FEW070 BKN200 00/M08 Q1040
SLLP 040500Z VRB02KT 9999 FEW070 SCT200 01/M07 Q1041
SLLP 040400Z 08006KT 9999 FEW070 SCT200 01/M07 Q1040
SLLP 040300Z 08006KT 9999 FEW070 SCT200 00/M07 Q1040
SLLP 040200Z 12004KT 9999 NSC M01/M08 Q1040
SLLP 040100Z 09004KT 9999 NSC 00/M09 Q1040
SLLP 040000Z 06006KT 9999 FEW070 SCT200 04/M08 Q1039
SLLP 032300Z 09006KT 9999 FEW070 SCT200 05/M10 Q1039
SLLP 032200Z 27009KT 9999 FEW017 BKN200 10/M16 Q1038
SLLP 032100Z 27012KT 9999 FEW020 BKN200 13/M18 Q1038
SLLP 032000Z 27008G18KT 240V320 9999 FEW023 SCT200 15/M18 Q1038
SLLP 031900Z 25012KT 240V310 9999 FEW023 SCT200 16/M18 Q1038
SLLP 031800Z 27008KT 9999 FEW023 SCT200 16/M18 Q1039
SLLP 031700Z 29005KT 9999 FEW020 SCT200 15/M20 Q1040
SLLP 031600Z VRB02KT 9999 FEW017 13/M21 Q1041
SLLP 031500Z 24006KT 9999 FEW070 11/M19 Q1041
SLLP 031400Z 24005KT 9999 FEW070 SCT200 09/M14 Q1041
SLLP 031300Z VRB02KT 9999 FEW070 SCT200 07/M18 Q1041
SLLP 031200Z 02004KT 9999 FEW070 BKN200 06/M22 Q1040
SLLP 031100Z 36004KT 9999 NSC 00/M16 Q1039
SLLP 031000Z 36004KT 9999 NSC 01/M15 Q1039
SLLP 030900Z 35003KT 9999 NSC M01/M17 Q1038
SLLP 030800Z 36004KT 9999 NSC 03/M18 Q1038
SLLP 030700Z 00000KT 9999 NSC M04/M15 Q1038
SLLP 030600Z 06005KT 9999 NSC M03/M15 Q1038
SLLP 030500Z 06005KT 9999 NSC M03/M13 Q1038
SLLP 030400Z VRB02KT 9999 NSC M01/M13 Q1039